Terminal Aerodrome Forecast
Issued by NWS

Home | Current Version | Previous Version | Text Only | Print | Product List | Glossary Off
Versions: 1 2 3 4 5 6 7 8 9 10 11 12 13

377
FTUS43 KUNR 221720
TAFGCC
TAF
KGCC 221720Z 2218/2318 24012KT P6SM SCT250
     FM222100 VRB06KT P6SM FEW250
     FM230000 32011KT P6SM FEW250=

USA.gov is the U.S. government's official web portal to all federal, state and local government web resources and services.